This is the latest recevied weather packets stored in our database for station/object M0TJX-1. If no packets are shown the sender has not sent any weather packets the latest 10 day(s).
| Time | Temp. | Humidity | Pressure | Rain* | Wind** | Luminosity | Snow |
|---|---|---|---|---|---|---|---|
| 1777805898 | 17.22° C | 73% | 1009.9 hPa | 0 mm | - | - | - |
| 1777804998 | 17.78° C | 70% | 1009.9 hPa | 0 mm | - | - | - |
| 1777804099 | 17.78° C | 70% | 1010 hPa | 0 mm | - | - | - |
| 1777803198 | 17.22° C | 73% | 1009.9 hPa | 0 mm | - | - | - |
| 1777802299 | 16.11° C | 82% | 1009.8 hPa | 0 mm | - | - | - |
| 1777801398 | 14.44° C | 85% | 1009.8 hPa | 0 mm | - | - | - |
| 1777800499 | 13.89° C | 90% | 1010.1 hPa | 0 mm | - | - | - |
| 1777799599 | 13.33° C | 93% | 1010 hPa | 0 mm | - | - | - |
| 1777798699 | 12.78° C | 96% | 1010 hPa | 0 mm | - | - | - |
| 1777797799 | 12.22° C | 97% | 1010 hPa | 0 mm | - | - | - |
| 1777796899 | 11.67° C | 97% | 1010.1 hPa | 0 mm | - | - | - |
| 1777795999 | 11.67° C | 97% | 1010 hPa | 0 mm | - | - | - |
| 1777795099 | 11.11° C | 97% | 1010 hPa | 0 mm | - | - | - |
| 1777794199 | 11.11° C | 97% | 1010 hPa | 0 mm | - | - | - |
| 1777793299 | 10.56° C | 97% | 1010.1 hPa | 0 mm | - | - | - |
| 1777792399 | 10.56° C | 97% | 1010.1 hPa | 0 mm | - | - | - |
| 1777791499 | 10.56° C | 97% | 1009.9 hPa | 0 mm | - | - | - |
| 1777790599 | 10° C | 97% | 1009.9 hPa | 0 mm | - | - | - |
| 1777789699 | 10° C | 97% | 1009.8 hPa | 0 mm | - | - | - |
| 1777788799 | 10° C | 97% | 1009.8 hPa | 0 mm | - | - | - |
| 1777787899 | 10° C | 97% | 1009.8 hPa | 0 mm | - | - | - |
| 1777786999 | 10° C | 97% | 1009.6 hPa | 0 mm | - | - | - |
| 1777786099 | 9.44° C | 97% | 1009.7 hPa | 0 mm | - | - | - |
| 1777785199 | 9.44° C | 97% | 1009.7 hPa | 0 mm | - | - | - |
| 1777784299 | 9.44° C | 97% | 1009.5 hPa | 0 mm | - | - | - |
* Rain latest hour (hover to see other rain measurements)
** Current wind speed in m/s (hover to see current wind gust speed)